Time;durP1;ratioP1;P1;durP2;ratioP2;P2;SDS_P1;SDS_P2;PMS_P1;PMS_P2;Temp;Humidity;BMP_temperature;BMP_pressure;BME280_temperature;BME280_humidity;BME280_pressure;Samples;Min_cycle;Max_cycle;Signal;HPM_P1;HPM_P2
2023/05/28 00:02:01;;;;;;;5.10;2.70;;;;;;;;;;8300904;28;20052;-60
2023/05/28 00:06:02;;;;;;;7.32;3.10;;;;;;;;;;8303043;28;20021;-59
2023/05/28 00:10:02;;;;;;;6.32;2.70;;;;;;;;;;8302883;28;20026;-60
2023/05/28 00:14:03;;;;;;;6.20;3.03;;;;;;;;;;8301851;28;20700;-60
2023/05/28 00:18:04;;;;;;;5.90;3.00;;;;;;;;;;8300463;28;20057;-59
2023/05/28 00:22:04;;;;;;;7.38;3.20;;;;;;;;;;8300990;28;20828;-59
2023/05/28 00:26:04;;;;;;;8.60;2.70;;;;;;;;;;8298827;28;20025;-59
2023/05/28 00:30:06;;;;;;;6.05;2.90;;;;;;;;;;8300326;28;20084;-60
2023/05/28 00:34:07;;;;;;;8.32;3.10;;;;;;;;;;8302415;28;20021;-59
2023/05/28 00:38:07;;;;;;;6.55;3.28;;;;;;;;;;8301035;28;20017;-59
2023/05/28 00:42:07;;;;;;;7.60;2.90;;;;;;;;;;8301076;28;20948;-59
2023/05/28 00:46:08;;;;;;;5.45;3.00;;;;;;;;;;8301816;28;20699;-59
2023/05/28 00:50:08;;;;;;;8.57;3.10;;;;;;;;;;8300818;28;20037;-60
2023/05/28 00:54:09;;;;;;;6.38;2.70;;;;;;;;;;8300029;28;20037;-59
2023/05/28 00:58:09;;;;;;;7.30;2.95;;;;;;;;;;8299855;28;20021;-59
2023/05/28 01:02:10;;;;;;;5.30;2.77;;;;;;;;;;8300128;28;20049;-59
2023/05/28 01:06:12;;;;;;;6.88;2.80;;;;;;;;;;8300114;28;20597;-59
2023/05/28 01:10:12;;;;;;;5.75;2.90;;;;;;;;;;8300568;28;20029;-59
2023/05/28 01:14:13;;;;;;;8.33;2.80;;;;;;;;;;8302144;28;20144;-59
2023/05/28 01:18:14;;;;;;;7.77;3.10;;;;;;;;;;8300845;28;20378;-59
2023/05/28 01:22:16;;;;;;;6.05;2.80;;;;;;;;;;8297220;28;20635;-59
2023/05/28 01:26:17;;;;;;;6.88;2.80;;;;;;;;;;8297907;28;20021;-59
2023/05/28 01:30:17;;;;;;;6.55;2.95;;;;;;;;;;8298927;28;20049;-58
2023/05/28 01:34:17;;;;;;;6.43;2.63;;;;;;;;;;8299185;28;20079;-59
2023/05/28 01:38:18;;;;;;;6.43;2.90;;;;;;;;;;8299371;28;20021;-59
2023/05/28 01:42:18;;;;;;;4.45;2.53;;;;;;;;;;8297190;28;20033;-59
2023/05/28 01:46:20;;;;;;;6.72;3.00;;;;;;;;;;8297292;28;20846;-59
2023/05/28 01:50:21;;;;;;;4.68;2.22;;;;;;;;;;8298135;28;20409;-59
2023/05/28 01:54:21;;;;;;;6.68;2.80;;;;;;;;;;8297988;28;20025;-59
2023/05/28 01:58:22;;;;;;;5.38;2.70;;;;;;;;;;8296655;28;20017;-59
2023/05/28 02:02:26;;;;;;;8.48;2.67;;;;;;;;;;8298356;28;20048;-59
2023/05/28 02:06:27;;;;;;;6.85;2.80;;;;;;;;;;8297263;28;20025;-59
2023/05/28 02:10:27;;;;;;;5.18;2.65;;;;;;;;;;8299019;28;21023;-59
2023/05/28 02:14:28;;;;;;;6.63;2.80;;;;;;;;;;8299313;28;20033;-59
2023/05/28 02:18:28;;;;;;;5.20;2.67;;;;;;;;;;8297936;28;20048;-59
2023/05/28 02:22:29;;;;;;;4.28;2.45;;;;;;;;;;8298283;28;20108;-59
2023/05/28 02:26:29;;;;;;;5.87;2.60;;;;;;;;;;8298128;28;20060;-59
2023/05/28 02:30:29;;;;;;;5.47;2.88;;;;;;;;;;8296606;28;20037;-59
2023/05/28 02:34:29;;;;;;;5.87;2.53;;;;;;;;;;8301405;28;20033;-59
2023/05/28 02:38:29;;;;;;;5.45;2.90;;;;;;;;;;8295096;28;20034;-59
2023/05/28 02:42:30;;;;;;;6.75;2.67;;;;;;;;;;8298079;28;20028;-59
2023/05/28 02:46:30;;;;;;;7.07;2.50;;;;;;;;;;8297011;28;20704;-60
2023/05/28 02:50:30;;;;;;;6.78;2.30;;;;;;;;;;8297109;28;20724;-59
2023/05/28 02:54:30;;;;;;;4.03;2.30;;;;;;;;;;8297138;28;20037;-59
2023/05/28 02:58:32;;;;;;;6.10;2.78;;;;;;;;;;8293867;28;20037;-59
2023/05/28 03:02:32;;;;;;;6.43;2.70;;;;;;;;;;8295538;28;20036;-59
2023/05/28 03:06:33;;;;;;;4.63;2.72;;;;;;;;;;8299102;28;20022;-59
2023/05/28 03:10:33;;;;;;;7.60;2.83;;;;;;;;;;8296575;28;20033;-58
2023/05/28 03:14:33;;;;;;;5.70;2.83;;;;;;;;;;8296217;28;20487;-59
2023/05/28 03:18:33;;;;;;;6.45;3.05;;;;;;;;;;8296441;28;20153;-59
2023/05/28 03:22:34;;;;;;;5.20;2.50;;;;;;;;;;8297470;28;20326;-59
2023/05/28 03:26:34;;;;;;;6.63;2.88;;;;;;;;;;8295977;28;20035;-59
2023/05/28 03:30:34;;;;;;;4.75;2.55;;;;;;;;;;8301076;28;20039;-59
2023/05/28 03:34:35;;;;;;;5.50;2.60;;;;;;;;;;8303494;28;20032;-59
2023/05/28 03:38:35;;;;;;;4.88;2.47;;;;;;;;;;8303873;28;20171;-59
2023/05/28 03:42:36;;;;;;;5.78;2.88;;;;;;;;;;8302403;28;20156;-59
2023/05/28 03:46:36;;;;;;;6.05;2.80;;;;;;;;;;8300907;28;20573;-59
2023/05/28 03:50:36;;;;;;;4.53;2.60;;;;;;;;;;8300864;28;20036;-59
2023/05/28 03:54:37;;;;;;;6.10;3.03;;;;;;;;;;8304635;28;20152;-59
2023/05/28 03:58:37;;;;;;;5.77;2.47;;;;;;;;;;8300229;28;20033;-59
2023/05/28 04:02:37;;;;;;;4.20;2.63;;;;;;;;;;8299003;28;20348;-59
2023/05/28 04:06:37;;;;;;;5.25;2.83;;;;;;;;;;8295152;28;20587;-59
2023/05/28 04:10:37;;;;;;;5.68;2.90;;;;;;;;;;8300188;28;20832;-59
2023/05/28 04:14:39;;;;;;;4.80;2.35;;;;;;;;;;8301013;28;20239;-59
2023/05/28 04:18:39;;;;;;;4.45;2.47;;;;;;;;;;8301807;28;20538;-59
2023/05/28 04:22:40;;;;;;;6.88;2.75;;;;;;;;;;8301483;28;20048;-58
2023/05/28 04:26:40;;;;;;;6.73;3.10;;;;;;;;;;8302778;28;20653;-58
2023/05/28 04:30:40;;;;;;;7.50;3.28;;;;;;;;;;8301045;28;20730;-59
2023/05/28 04:34:41;;;;;;;5.63;2.70;;;;;;;;;;8300662;28;20033;-60
2023/05/28 04:38:41;;;;;;;8.43;2.70;;;;;;;;;;8300297;28;20140;-59
2023/05/28 04:42:42;;;;;;;6.88;2.95;;;;;;;;;;8300788;28;20037;-59
2023/05/28 04:46:45;;;;;;;6.95;2.80;;;;;;;;;;8301409;28;20147;-59
2023/05/28 04:50:45;;;;;;;5.53;3.05;;;;;;;;;;8299188;28;20033;-59
2023/05/28 04:54:46;;;;;;;4.97;2.57;;;;;;;;;;8302463;28;20126;-58
2023/05/28 04:58:46;;;;;;;7.28;2.92;;;;;;;;;;8300781;28;20731;-59
2023/05/28 05:02:47;;;;;;;5.22;2.83;;;;;;;;;;8299826;28;20037;-59
2023/05/28 05:06:48;;;;;;;10.02;3.03;;;;;;;;;;8301061;28;20025;-59
2023/05/28 05:10:49;;;;;;;7.85;2.85;;;;;;;;;;8299197;28;20096;-59
2023/05/28 05:14:49;;;;;;;5.70;2.70;;;;;;;;;;8300006;28;20025;-59
2023/05/28 05:18:49;;;;;;;5.30;2.80;;;;;;;;;;8300377;28;20044;-59
2023/05/28 05:22:50;;;;;;;6.47;2.95;;;;;;;;;;8299823;28;20283;-59
2023/05/28 05:26:50;;;;;;;5.68;2.60;;;;;;;;;;8299739;28;20063;-59
2023/05/28 05:30:50;;;;;;;6.40;2.65;;;;;;;;;;8299726;28;20049;-59
2023/05/28 05:34:50;;;;;;;8.60;3.17;;;;;;;;;;8298611;28;20035;-59
2023/05/28 05:38:51;;;;;;;6.40;3.13;;;;;;;;;;8301123;28;20029;-59
2023/05/28 05:42:51;;;;;;;4.50;2.53;;;;;;;;;;8288907;28;20032;-59
2023/05/28 05:46:51;;;;;;;5.25;3.00;;;;;;;;;;8289474;28;20033;-60
2023/05/28 05:50:54;;;;;;;4.28;3.00;;;;;;;;;;8288249;28;20485;-61
2023/05/28 05:54:54;;;;;;;6.87;2.83;;;;;;;;;;8298247;28;20120;-60
2023/05/28 05:58:54;;;;;;;7.85;2.78;;;;;;;;;;8295689;28;20036;-59
2023/05/28 06:02:54;;;;;;;11.52;3.20;;;;;;;;;;8298651;28;20038;-61
2023/05/28 06:06:55;;;;;;;6.10;2.78;;;;;;;;;;8294036;28;20025;-60
2023/05/28 06:10:55;;;;;;;6.90;3.47;;;;;;;;;;8295405;28;20021;-61
2023/05/28 06:14:55;;;;;;;5.35;2.90;;;;;;;;;;8296615;28;20586;-60
2023/05/28 06:18:55;;;;;;;6.13;3.07;;;;;;;;;;8297584;28;20033;-61
2023/05/28 06:22:56;;;;;;;5.82;2.92;;;;;;;;;;8299398;28;20041;-61
2023/05/28 06:26:57;;;;;;;6.45;2.88;;;;;;;;;;8296624;28;20026;-60
2023/05/28 06:30:57;;;;;;;6.55;3.13;;;;;;;;;;8294573;28;20134;-60
2023/05/28 06:34:57;;;;;;;5.38;3.08;;;;;;;;;;8295889;28;20091;-61
2023/05/28 06:38:57;;;;;;;4.93;2.88;;;;;;;;;;8297159;28;20017;-60
2023/05/28 06:43:00;;;;;;;6.45;3.03;;;;;;;;;;8300938;28;20021;-60
2023/05/28 06:47:01;;;;;;;6.50;3.17;;;;;;;;;;8297966;28;20033;-60
2023/05/28 06:51:01;;;;;;;4.13;2.78;;;;;;;;;;8288233;28;20025;-60
2023/05/28 06:55:02;;;;;;;6.50;2.73;;;;;;;;;;8292023;28;20025;-60
2023/05/28 06:59:02;;;;;;;6.25;3.03;;;;;;;;;;8288265;28;20148;-60
2023/05/28 07:03:02;;;;;;;6.07;3.13;;;;;;;;;;8290974;28;20032;-60
2023/05/28 07:07:03;;;;;;;4.90;2.80;;;;;;;;;;8300361;28;20017;-60
2023/05/28 07:11:03;;;;;;;6.45;3.00;;;;;;;;;;8297371;28;20095;-60
2023/05/28 07:15:04;;;;;;;6.03;3.38;;;;;;;;;;8296063;28;20916;-61
2023/05/28 07:19:04;;;;;;;7.82;2.85;;;;;;;;;;8298158;28;20560;-61
2023/05/28 07:23:05;;;;;;;5.43;3.33;;;;;;;;;;8299087;28;20108;-60
2023/05/28 07:27:06;;;;;;;5.27;2.90;;;;;;;;;;8299372;28;20276;-61
2023/05/28 07:31:06;;;;;;;4.88;2.90;;;;;;;;;;8298580;28;20291;-61
2023/05/28 07:35:06;;;;;;;7.25;2.88;;;;;;;;;;8302832;28;20298;-60
2023/05/28 07:39:07;;;;;;;7.57;3.40;;;;;;;;;;8300398;28;20613;-61
2023/05/28 07:43:07;;;;;;;5.50;3.00;;;;;;;;;;8300777;28;20706;-61
2023/05/28 07:47:07;;;;;;;7.60;3.30;;;;;;;;;;8300647;28;20494;-60
2023/05/28 07:51:10;;;;;;;7.90;3.30;;;;;;;;;;8296970;28;20553;-61
2023/05/28 07:55:10;;;;;;;8.68;3.10;;;;;;;;;;8297101;28;20373;-61
2023/05/28 07:59:11;;;;;;;5.20;2.80;;;;;;;;;;8299802;28;20486;-61
2023/05/28 08:03:11;;;;;;;6.57;3.17;;;;;;;;;;8298699;28;20063;-61
2023/05/28 08:07:12;;;;;;;9.52;3.25;;;;;;;;;;8295977;28;20037;-61
2023/05/28 08:11:14;;;;;;;6.47;3.10;;;;;;;;;;8305169;28;20025;-62
2023/05/28 08:15:15;;;;;;;6.50;3.23;;;;;;;;;;8302440;28;20090;-61
2023/05/28 08:19:15;;;;;;;10.65;3.22;;;;;;;;;;8297988;28;20103;-62
2023/05/28 08:23:15;;;;;;;7.13;3.10;;;;;;;;;;8300664;28;20032;-61
2023/05/28 08:27:15;;;;;;;7.03;3.35;;;;;;;;;;8300094;28;20087;-61
2023/05/28 08:31:16;;;;;;;6.75;3.30;;;;;;;;;;8297197;28;20041;-61
2023/05/28 08:35:16;;;;;;;8.05;3.38;;;;;;;;;;8299239;28;20032;-61
2023/05/28 08:39:17;;;;;;;4.60;2.92;;;;;;;;;;8297834;28;20097;-61
2023/05/28 08:43:17;;;;;;;11.07;3.10;;;;;;;;;;8300108;28;20029;-61
2023/05/28 08:47:17;;;;;;;6.20;3.33;;;;;;;;;;8301173;28;20060;-61
2023/05/28 08:51:19;;;;;;;6.90;3.30;;;;;;;;;;8301061;28;20041;-61
2023/05/28 08:55:19;;;;;;;4.83;3.17;;;;;;;;;;8298015;28;20030;-61
2023/05/28 08:59:19;;;;;;;6.50;2.90;;;;;;;;;;8300052;28;20033;-61
2023/05/28 09:03:19;;;;;;;5.43;3.03;;;;;;;;;;8299577;28;20045;-61
2023/05/28 09:07:20;;;;;;;5.23;3.10;;;;;;;;;;8301547;28;20028;-61
2023/05/28 09:11:20;;;;;;;4.57;3.00;;;;;;;;;;8300230;28;20029;-61
2023/05/28 09:15:21;;;;;;;5.70;2.97;;;;;;;;;;8298887;28;20037;-61
2023/05/28 09:19:22;;;;;;;4.13;2.80;;;;;;;;;;8299843;28;20029;-61
2023/05/28 09:23:22;;;;;;;5.90;2.72;;;;;;;;;;8301902;28;20382;-62
2023/05/28 09:27:23;;;;;;;5.10;3.00;;;;;;;;;;8300161;28;20022;-61
2023/05/28 09:31:33;;;;;;;7.97;3.20;;;;;;;;;;8298139;28;20326;-61
2023/05/28 09:35:34;;;;;;;6.40;3.15;;;;;;;;;;8295929;28;20148;-61
2023/05/28 09:39:34;;;;;;;5.68;2.55;;;;;;;;;;8299586;28;20050;-61
2023/05/28 09:43:37;;;;;;;5.77;3.03;;;;;;;;;;8303272;28;20036;-61
2023/05/28 09:47:44;;;;;;;5.82;3.13;;;;;;;;;;8298636;28;20037;-61
2023/05/28 09:51:47;;;;;;;5.55;2.72;;;;;;;;;;8299790;28;20481;-62
2023/05/28 09:55:47;;;;;;;5.15;3.05;;;;;;;;;;8297053;28;20115;-61
2023/05/28 09:59:48;;;;;;;7.68;3.42;;;;;;;;;;8298154;28;20029;-61
2023/05/28 10:03:51;;;;;;;6.28;3.13;;;;;;;;;;8298449;28;20037;-61
2023/05/28 10:07:53;;;;;;;5.22;2.92;;;;;;;;;;8299402;28;20802;-61
2023/05/28 10:12:02;;;;;;;5.85;2.80;;;;;;;;;;8297245;28;20033;-61
2023/05/28 10:16:02;;;;;;;5.97;3.00;;;;;;;;;;8297261;28;20037;-61
2023/05/28 10:20:04;;;;;;;5.30;2.90;;;;;;;;;;8297501;28;20025;-61
2023/05/28 10:24:05;;;;;;;5.18;3.03;;;;;;;;;;8294946;28;20029;-61
2023/05/28 10:28:05;;;;;;;6.90;3.07;;;;;;;;;;8293956;28;20144;-61
2023/05/28 10:32:05;;;;;;;4.80;2.70;;;;;;;;;;8297849;28;20540;-61
2023/05/28 10:36:09;;;;;;;4.13;2.85;;;;;;;;;;8295457;28;20844;-61
2023/05/28 10:40:10;;;;;;;6.20;3.22;;;;;;;;;;8297407;28;20025;-61
2023/05/28 10:44:11;;;;;;;5.17;3.00;;;;;;;;;;8296696;28;20676;-61
2023/05/28 10:48:14;;;;;;;5.95;2.97;;;;;;;;;;8297597;28;20096;-61
2023/05/28 10:52:21;;;;;;;5.70;3.03;;;;;;;;;;8297917;28;20760;-61
2023/05/28 10:56:21;;;;;;;4.57;2.70;;;;;;;;;;8296616;28;20040;-61
2023/05/28 11:00:23;;;;;;;4.78;2.67;;;;;;;;;;8296176;28;22244;-61
2023/05/28 11:04:23;;;;;;;7.00;3.63;;;;;;;;;;8295632;28;20033;-61
2023/05/28 11:08:23;;;;;;;4.38;2.92;;;;;;;;;;8294831;28;20032;-61
2023/05/28 11:12:27;;;;;;;4.50;3.15;;;;;;;;;;8299753;28;20034;-61
2023/05/28 11:16:31;;;;;;;4.30;3.10;;;;;;;;;;8298252;28;20033;-62
2023/05/28 11:20:31;;;;;;;6.65;3.00;;;;;;;;;;8295607;28;20069;-61
2023/05/28 11:24:32;;;;;;;5.07;3.17;;;;;;;;;;8299857;28;20030;-61
2023/05/28 11:28:32;;;;;;;6.13;2.67;;;;;;;;;;8292982;28;20056;-61
2023/05/28 11:32:33;;;;;;;5.88;2.47;;;;;;;;;;8295901;28;20609;-61
2023/05/28 11:36:40;;;;;;;6.65;3.17;;;;;;;;;;8295467;28;20048;-61
2023/05/28 11:40:41;;;;;;;5.28;2.92;;;;;;;;;;8294265;28;20025;-61
2023/05/28 11:44:47;;;;;;;4.90;2.75;;;;;;;;;;8295543;28;20266;-61
2023/05/28 11:48:47;;;;;;;4.68;2.85;;;;;;;;;;8294767;28;20037;-61
2023/05/28 11:52:49;;;;;;;5.40;2.97;;;;;;;;;;8304007;28;20022;-61
2023/05/28 11:56:50;;;;;;;9.27;3.00;;;;;;;;;;8300589;28;20041;-61
2023/05/28 12:00:55;;;;;;;6.15;3.28;;;;;;;;;;8302305;28;20143;-61
2023/05/28 12:05:00;;;;;;;4.07;2.60;;;;;;;;;;8303318;28;20076;-62
2023/05/28 12:09:05;;;;;;;5.65;3.20;;;;;;;;;;8301443;28;20084;-62
2023/05/28 12:13:05;;;;;;;5.07;3.00;;;;;;;;;;8300867;28;20090;-61
2023/05/28 12:17:06;;;;;;;6.18;3.20;;;;;;;;;;8300484;28;20032;-62
2023/05/28 12:21:09;;;;;;;5.05;3.10;;;;;;;;;;8301780;28;20116;-62
2023/05/28 12:25:10;;;;;;;5.07;3.00;;;;;;;;;;8303640;28;20025;-61
2023/05/28 12:29:10;;;;;;;4.32;2.83;;;;;;;;;;8305137;28;20062;-61
2023/05/28 12:33:11;;;;;;;4.27;2.70;;;;;;;;;;8302592;28;20494;-62
2023/05/28 12:37:11;;;;;;;5.20;2.90;;;;;;;;;;8299903;28;20283;-61
2023/05/28 12:41:11;;;;;;;3.47;2.83;;;;;;;;;;8300258;28;20046;-61
2023/05/28 12:45:11;;;;;;;3.83;3.00;;;;;;;;;;8302539;28;20282;-61
2023/05/28 12:49:12;;;;;;;6.53;2.88;;;;;;;;;;8301480;28;20036;-62
2023/05/28 12:53:13;;;;;;;4.73;2.90;;;;;;;;;;8300662;28;20064;-61
2023/05/28 12:57:13;;;;;;;4.05;3.10;;;;;;;;;;8299627;28;20723;-62
2023/05/28 13:01:13;;;;;;;5.43;3.30;;;;;;;;;;8300816;28;20037;-61
2023/05/28 13:05:13;;;;;;;3.85;3.00;;;;;;;;;;8299976;28;20029;-62
2023/05/28 13:09:14;;;;;;;4.82;3.03;;;;;;;;;;8299562;28;20017;-61
2023/05/28 13:13:14;;;;;;;7.90;3.30;;;;;;;;;;8300881;28;20496;-61
2023/05/28 13:17:15;;;;;;;7.60;3.50;;;;;;;;;;8301555;28;20132;-61
2023/05/28 13:21:15;;;;;;;7.05;3.30;;;;;;;;;;8298828;28;20032;-61
2023/05/28 13:25:15;;;;;;;4.87;3.53;;;;;;;;;;8301088;28;20155;-62
2023/05/28 13:29:15;;;;;;;3.92;3.08;;;;;;;;;;8298185;28;20025;-61
2023/05/28 13:33:15;;;;;;;5.72;3.33;;;;;;;;;;8301446;28;20122;-61
2023/05/28 13:37:16;;;;;;;4.90;3.22;;;;;;;;;;8301402;28;20033;-62
2023/05/28 13:41:16;;;;;;;4.82;3.22;;;;;;;;;;8299535;28;20719;-62
2023/05/28 13:45:17;;;;;;;5.20;3.70;;;;;;;;;;8295708;28;20029;-62
2023/05/28 13:49:17;;;;;;;4.20;3.40;;;;;;;;;;8299869;28;20029;-62
2023/05/28 13:53:17;;;;;;;4.90;3.30;;;;;;;;;;8297575;28;20021;-61
2023/05/28 13:57:20;;;;;;;6.07;3.88;;;;;;;;;;8297355;28;20124;-62
2023/05/28 14:01:20;;;;;;;6.05;3.67;;;;;;;;;;8297709;28;20099;-62
2023/05/28 14:05:21;;;;;;;4.53;3.38;;;;;;;;;;8297221;28;20025;-62
2023/05/28 14:09:21;;;;;;;6.10;4.00;;;;;;;;;;8296789;28;20036;-62
2023/05/28 14:13:21;;;;;;;5.22;3.92;;;;;;;;;;8297709;28;20059;-62
2023/05/28 14:17:21;;;;;;;6.72;3.72;;;;;;;;;;8299110;28;20741;-62
2023/05/28 14:21:21;;;;;;;5.25;4.10;;;;;;;;;;8288395;28;20033;-62
2023/05/28 14:25:22;;;;;;;5.78;4.10;;;;;;;;;;8294265;28;20418;-62
2023/05/28 14:29:22;;;;;;;6.93;4.28;;;;;;;;;;8297163;28;20025;-61
2023/05/28 14:33:22;;;;;;;7.18;4.05;;;;;;;;;;8296851;28;20040;-66
2023/05/28 14:37:22;;;;;;;5.67;4.33;;;;;;;;;;8296790;28;20028;-61
2023/05/28 14:41:22;;;;;;;8.32;4.50;;;;;;;;;;8295917;28;20025;-61
2023/05/28 14:45:22;;;;;;;5.65;4.88;;;;;;;;;;8298066;28;20061;-61
2023/05/28 14:49:23;;;;;;;6.13;4.63;;;;;;;;;;8295903;28;20581;-62
2023/05/28 14:53:23;;;;;;;6.93;4.85;;;;;;;;;;8300073;28;20039;-61
2023/05/28 14:57:24;;;;;;;5.17;4.40;;;;;;;;;;8299654;28;20030;-62
2023/05/28 15:01:24;;;;;;;10.32;4.63;;;;;;;;;;8298420;28;20173;-62
2023/05/28 15:05:26;;;;;;;7.22;4.80;;;;;;;;;;8298821;28;20048;-61
2023/05/28 15:09:26;;;;;;;5.88;4.57;;;;;;;;;;8296439;28;20029;-61
2023/05/28 15:13:26;;;;;;;6.47;4.88;;;;;;;;;;8302235;28;20148;-61
2023/05/28 15:17:27;;;;;;;6.38;4.50;;;;;;;;;;8296339;28;20124;-61
2023/05/28 15:21:27;;;;;;;6.40;4.60;;;;;;;;;;8297021;28;20040;-61
2023/05/28 15:25:27;;;;;;;6.43;4.63;;;;;;;;;;8298512;28;20147;-61
2023/05/28 15:29:28;;;;;;;8.17;4.87;;;;;;;;;;8300292;28;20106;-62
2023/05/28 15:33:29;;;;;;;8.40;4.38;;;;;;;;;;8302300;28;20367;-61
2023/05/28 15:37:29;;;;;;;7.30;4.30;;;;;;;;;;8299869;28;20045;-62
2023/05/28 15:41:30;;;;;;;5.13;4.38;;;;;;;;;;8302416;28;20025;-61
2023/05/28 15:45:30;;;;;;;5.30;4.22;;;;;;;;;;8301304;28;20122;-61
2023/05/28 15:49:30;;;;;;;5.97;4.73;;;;;;;;;;8301723;28;20032;-61
2023/05/28 15:53:31;;;;;;;7.03;4.43;;;;;;;;;;8302298;28;20037;-62
2023/05/28 15:57:31;;;;;;;6.93;4.50;;;;;;;;;;8302394;28;20466;-61
2023/05/28 16:01:32;;;;;;;5.97;4.70;;;;;;;;;;8299041;28;20737;-61
2023/05/28 16:05:32;;;;;;;6.20;4.70;;;;;;;;;;8301220;28;20025;-61
2023/05/28 16:09:33;;;;;;;8.40;4.80;;;;;;;;;;8299944;28;20170;-61
2023/05/28 16:13:35;;;;;;;7.03;4.53;;;;;;;;;;8301218;28;20166;-61
2023/05/28 16:17:38;;;;;;;6.10;4.60;;;;;;;;;;8299913;28;20350;-61
2023/05/28 16:21:39;;;;;;;6.45;4.60;;;;;;;;;;8298574;28;20029;-61
2023/05/28 16:25:39;;;;;;;6.13;4.53;;;;;;;;;;8300978;28;20032;-61
2023/05/28 16:29:40;;;;;;;6.47;4.63;;;;;;;;;;8298692;28;20025;-61
2023/05/28 16:33:40;;;;;;;5.28;4.38;;;;;;;;;;8300700;28;20041;-61
2023/05/28 16:37:41;;;;;;;5.60;4.22;;;;;;;;;;8299740;28;20997;-61
2023/05/28 16:41:41;;;;;;;5.75;4.50;;;;;;;;;;8298268;28;20962;-61
2023/05/28 16:45:42;;;;;;;4.95;4.10;;;;;;;;;;8299676;28;20520;-61
2023/05/28 16:49:42;;;;;;;5.68;4.18;;;;;;;;;;8296792;28;20028;-61
2023/05/28 16:53:42;;;;;;;5.05;4.05;;;;;;;;;;8300416;28;20067;-62
2023/05/28 16:57:43;;;;;;;4.10;3.50;;;;;;;;;;8300653;28;20091;-61
2023/05/28 17:01:46;;;;;;;5.80;4.10;;;;;;;;;;8300907;28;20039;-61
2023/05/28 17:05:46;;;;;;;4.60;3.80;;;;;;;;;;8301702;28;20056;-61
2023/05/28 17:09:46;;;;;;;11.15;3.95;;;;;;;;;;8298311;28;20897;-65
2023/05/28 17:13:46;;;;;;;5.25;3.85;;;;;;;;;;8317119;28;20045;-61
2023/05/28 17:17:46;;;;;;;6.57;3.65;;;;;;;;;;8298345;28;20041;-61
2023/05/28 17:21:48;;;;;;;4.57;3.40;;;;;;;;;;8299279;28;20025;-61
2023/05/28 17:25:49;;;;;;;4.90;3.50;;;;;;;;;;8301215;28;20385;-61
2023/05/28 17:29:49;;;;;;;4.82;3.33;;;;;;;;;;8297308;28;20122;-61
2023/05/28 17:33:49;;;;;;;4.87;3.20;;;;;;;;;;8298185;28;20045;-61
2023/05/28 17:37:50;;;;;;;4.13;2.93;;;;;;;;;;8299411;28;20037;-62
2023/05/28 17:41:50;;;;;;;5.73;2.90;;;;;;;;;;8297183;28;20478;-60
2023/05/28 17:45:53;;;;;;;5.20;2.87;;;;;;;;;;8296991;28;20711;-61
2023/05/28 17:49:53;;;;;;;5.03;3.20;;;;;;;;;;8298294;28;20193;-61
2023/05/28 17:53:53;;;;;;;5.50;2.90;;;;;;;;;;8297034;28;20132;-62
2023/05/28 17:57:53;;;;;;;5.20;2.97;;;;;;;;;;8298534;28;20064;-61
2023/05/28 18:01:54;;;;;;;4.80;2.95;;;;;;;;;;8298345;28;20054;-61
2023/05/28 18:05:54;;;;;;;6.25;2.80;;;;;;;;;;8297194;28;20044;-61
2023/05/28 18:09:54;;;;;;;4.18;2.83;;;;;;;;;;8298676;28;20079;-61
2023/05/28 18:13:54;;;;;;;5.28;2.80;;;;;;;;;;8298183;28;20056;-61
2023/05/28 18:17:55;;;;;;;4.63;2.80;;;;;;;;;;8297035;28;20391;-61
2023/05/28 18:21:55;;;;;;;4.25;3.15;;;;;;;;;;8298936;28;20653;-61
2023/05/28 18:25:55;;;;;;;4.68;3.10;;;;;;;;;;8298248;28;20022;-61
2023/05/28 18:29:55;;;;;;;4.32;2.88;;;;;;;;;;8297408;28;21004;-61
2023/05/28 18:33:55;;;;;;;8.30;3.00;;;;;;;;;;8298147;28;20064;-61
2023/05/28 18:37:56;;;;;;;7.43;2.95;;;;;;;;;;8295598;28;21069;-61
2023/05/28 18:41:56;;;;;;;3.67;3.00;;;;;;;;;;8297707;28;20448;-61
2023/05/28 18:45:56;;;;;;;4.90;2.92;;;;;;;;;;8297498;28;20148;-61
2023/05/28 18:49:57;;;;;;;6.75;3.05;;;;;;;;;;8294075;28;20044;-61
2023/05/28 18:53:58;;;;;;;5.35;3.17;;;;;;;;;;8298709;28;20159;-61
2023/05/28 18:57:59;;;;;;;4.95;2.70;;;;;;;;;;8295830;28;20932;-61
2023/05/28 19:01:59;;;;;;;4.90;3.05;;;;;;;;;;8295477;28;20041;-60
2023/05/28 19:05:59;;;;;;;4.30;2.97;;;;;;;;;;8298250;28;20028;-61
2023/05/28 19:10:05;;;;;;;6.20;3.17;;;;;;;;;;8297495;28;20025;-60
2023/05/28 19:14:06;;;;;;;5.15;3.40;;;;;;;;;;8295802;28;20026;-61
2023/05/28 19:18:06;;;;;;;5.18;3.70;;;;;;;;;;8295407;28;20780;-60
2023/05/28 19:22:06;;;;;;;6.23;3.43;;;;;;;;;;8294871;28;20039;-61
2023/05/28 19:26:06;;;;;;;5.60;3.30;;;;;;;;;;8296982;28;20326;-61
2023/05/28 19:30:07;;;;;;;7.63;4.20;;;;;;;;;;8293461;28;20695;-61
2023/05/28 19:34:08;;;;;;;5.57;3.35;;;;;;;;;;8294959;28;20025;-61
2023/05/28 19:38:08;;;;;;;6.18;3.65;;;;;;;;;;8295004;28;20020;-60
2023/05/28 19:42:08;;;;;;;5.05;3.15;;;;;;;;;;8296108;28;20069;-61
2023/05/28 19:46:08;;;;;;;7.07;3.13;;;;;;;;;;8294845;28;20091;-61
2023/05/28 19:50:09;;;;;;;6.65;3.40;;;;;;;;;;8292555;28;20044;-61
2023/05/28 19:54:09;;;;;;;4.55;3.05;;;;;;;;;;8296606;28;20177;-60
2023/05/28 19:58:09;;;;;;;5.07;2.97;;;;;;;;;;8293074;28;20462;-60
2023/05/28 20:02:10;;;;;;;4.80;3.20;;;;;;;;;;8293687;28;20641;-61
2023/05/28 20:06:10;;;;;;;4.10;3.03;;;;;;;;;;8296707;28;20667;-61
2023/05/28 20:10:10;;;;;;;6.33;2.90;;;;;;;;;;8294897;28;20882;-61
2023/05/28 20:14:10;;;;;;;6.40;3.20;;;;;;;;;;8303285;28;20819;-60
2023/05/28 20:18:13;;;;;;;7.00;3.55;;;;;;;;;;8300136;28;20030;-61
2023/05/28 20:22:13;;;;;;;5.10;2.88;;;;;;;;;;8299699;28;20026;-62
2023/05/28 20:26:13;;;;;;;5.33;3.20;;;;;;;;;;8300534;28;20036;-60
2023/05/28 20:30:15;;;;;;;4.40;2.80;;;;;;;;;;8300300;28;20633;-61
2023/05/28 20:34:15;;;;;;;5.43;2.72;;;;;;;;;;8297211;28;20497;-61
2023/05/28 20:38:17;;;;;;;4.75;2.90;;;;;;;;;;8299780;28;20029;-60
2023/05/28 20:42:17;;;;;;;5.28;2.97;;;;;;;;;;8300561;28;20849;-60
2023/05/28 20:46:17;;;;;;;4.45;3.05;;;;;;;;;;8298838;28;20033;-60
2023/05/28 20:50:17;;;;;;;6.03;3.00;;;;;;;;;;8298899;28;20057;-60
2023/05/28 20:54:17;;;;;;;6.07;2.80;;;;;;;;;;8302087;28;20024;-60
2023/05/28 20:58:18;;;;;;;4.43;2.65;;;;;;;;;;8300024;28;20021;-60
2023/05/28 21:02:18;;;;;;;7.43;2.92;;;;;;;;;;8302951;28;20033;-60
2023/05/28 21:06:18;;;;;;;9.40;2.63;;;;;;;;;;8301247;28;20025;-60
2023/05/28 21:10:18;;;;;;;4.30;2.60;;;;;;;;;;8300505;28;20055;-60
2023/05/28 21:14:19;;;;;;;4.07;2.60;;;;;;;;;;8301834;28;20432;-61
2023/05/28 21:18:19;;;;;;;5.20;3.00;;;;;;;;;;8295313;28;20703;-60
2023/05/28 21:22:19;;;;;;;4.22;2.10;;;;;;;;;;8299064;28;20048;-62
2023/05/28 21:26:19;;;;;;;4.18;2.20;;;;;;;;;;8299590;28;20034;-60
2023/05/28 21:30:19;;;;;;;3.58;2.17;;;;;;;;;;8298661;28;20025;-61
2023/05/28 21:34:20;;;;;;;3.40;2.35;;;;;;;;;;8300042;28;20921;-60
2023/05/28 21:38:21;;;;;;;2.95;2.05;;;;;;;;;;8296861;28;20036;-60
2023/05/28 21:42:21;;;;;;;4.70;2.50;;;;;;;;;;8299997;28;20025;-60
2023/05/28 21:46:21;;;;;;;3.10;2.22;;;;;;;;;;8298623;28;20072;-60
2023/05/28 21:50:21;;;;;;;4.50;2.40;;;;;;;;;;8297270;28;20957;-59
2023/05/28 21:54:22;;;;;;;4.30;2.40;;;;;;;;;;8299655;28;20032;-60
2023/05/28 21:58:22;;;;;;;5.07;2.53;;;;;;;;;;8294945;28;20290;-59
2023/05/28 22:02:22;;;;;;;6.80;2.85;;;;;;;;;;8297097;28;20071;-60
2023/05/28 22:06:23;;;;;;;4.63;2.42;;;;;;;;;;8296633;28;20707;-61
2023/05/28 22:10:23;;;;;;;5.10;2.58;;;;;;;;;;8294713;28;20524;-60
2023/05/28 22:14:23;;;;;;;3.92;2.35;;;;;;;;;;8300634;28;20029;-65
2023/05/28 22:18:24;;;;;;;5.45;2.50;;;;;;;;;;8296542;28;20077;-60
2023/05/28 22:22:24;;;;;;;3.97;2.00;;;;;;;;;;8297925;28;20025;-60
2023/05/28 22:26:26;;;;;;;4.57;2.30;;;;;;;;;;8298717;28;20721;-60
2023/05/28 22:30:26;;;;;;;4.13;2.58;;;;;;;;;;8297103;28;20037;-61
2023/05/28 22:34:26;;;;;;;5.90;1.90;;;;;;;;;;8297714;28;20028;-60
2023/05/28 22:38:27;;;;;;;5.82;2.10;;;;;;;;;;8298289;28;20906;-60
2023/05/28 22:42:27;;;;;;;3.67;2.45;;;;;;;;;;8295560;28;20041;-61
2023/05/28 22:46:27;;;;;;;3.90;2.60;;;;;;;;;;8296833;28;20132;-60
2023/05/28 22:50:27;;;;;;;3.15;2.30;;;;;;;;;;8295782;28;20040;-60
2023/05/28 22:54:27;;;;;;;3.92;2.35;;;;;;;;;;8298570;28;20993;-60
2023/05/28 22:58:28;;;;;;;2.72;2.08;;;;;;;;;;8295978;28;20032;-60
2023/05/28 23:02:29;;;;;;;3.22;2.40;;;;;;;;;;8296922;28;20033;-60
2023/05/28 23:06:29;;;;;;;3.65;2.63;;;;;;;;;;8297224;28;20025;-59
2023/05/28 23:10:30;;;;;;;3.38;2.13;;;;;;;;;;8297189;28;20025;-60
2023/05/28 23:14:30;;;;;;;4.15;2.53;;;;;;;;;;8296578;28;20040;-60
2023/05/28 23:18:32;;;;;;;3.60;2.47;;;;;;;;;;8295979;28;20037;-60
2023/05/28 23:22:32;;;;;;;5.53;2.15;;;;;;;;;;8297024;28;20463;-60
2023/05/28 23:26:32;;;;;;;4.03;2.30;;;;;;;;;;8297388;28;20031;-60
2023/05/28 23:30:33;;;;;;;5.03;2.65;;;;;;;;;;8294611;28;20301;-60
2023/05/28 23:34:34;;;;;;;5.20;2.83;;;;;;;;;;8295475;28;20132;-60
2023/05/28 23:38:34;;;;;;;4.00;2.30;;;;;;;;;;8298214;28;20088;-60
2023/05/28 23:42:34;;;;;;;3.72;2.50;;;;;;;;;;8297047;28;20029;-60
2023/05/28 23:46:36;;;;;;;4.90;2.70;;;;;;;;;;8301178;28;20029;-59
2023/05/28 23:50:37;;;;;;;3.47;2.30;;;;;;;;;;8302795;28;20114;-60
2023/05/28 23:54:37;;;;;;;5.33;2.40;;;;;;;;;;8303660;28;20781;-60
2023/05/28 23:58:37;;;;;;;5.63;2.70;;;;;;;;;;8303947;28;20891;-60
